Time;durP1;ratioP1;P1;durP2;ratioP2;P2;SDS_P1;SDS_P2;PMS_P1;PMS_P2;Temp;Humidity;BMP_temperature;BMP_pressure;BME280_temperature;BME280_humidity;BME280_pressure;Samples;Min_cycle;Max_cycle;Signal;HPM_P1;HPM_P2
2024/01/20 00:00:15;;;;;;;18.97;10.97;;;-1.90;99.90;;;;;;963223;145;27266;-82
2024/01/20 00:02:42;;;;;;;19.17;11.30;;;-1.90;99.90;;;;;;962693;145;27262;-82
2024/01/20 00:05:09;;;;;;;15.73;10.60;;;-1.90;99.90;;;;;;963189;147;27249;-82
2024/01/20 00:07:35;;;;;;;16.83;11.97;;;-2.00;99.90;;;;;;963087;147;27332;-82
2024/01/20 00:10:02;;;;;;;20.60;11.53;;;-2.00;99.90;;;;;;962601;145;27280;-84
2024/01/20 00:12:30;;;;;;;15.80;11.23;;;-2.00;99.90;;;;;;962584;145;27265;-83
2024/01/20 00:14:55;;;;;;;16.70;10.60;;;-2.10;99.90;;;;;;963655;146;27266;-84
2024/01/20 00:17:22;;;;;;;15.63;10.70;;;-2.10;99.90;;;;;;962858;147;27341;-84
2024/01/20 00:19:48;;;;;;;17.00;10.97;;;-2.10;99.90;;;;;;962452;145;27733;-84
2024/01/20 00:22:15;;;;;;;18.73;11.77;;;-2.10;99.90;;;;;;962927;148;27250;-85
2024/01/20 00:24:41;;;;;;;16.83;11.73;;;-2.20;99.90;;;;;;963210;145;27254;-84
2024/01/20 00:27:08;;;;;;;17.77;11.43;;;-2.20;99.90;;;;;;963287;145;27306;-83
2024/01/20 00:29:34;;;;;;;18.63;11.93;;;-2.20;99.90;;;;;;963181;146;27447;-85
2024/01/20 00:32:01;;;;;;;17.17;12.67;;;-2.30;99.90;;;;;;964361;145;27313;-84
2024/01/20 00:34:28;;;;;;;15.60;11.00;;;-2.30;99.90;;;;;;966286;145;27296;-84
2024/01/20 00:36:54;;;;;;;18.80;11.97;;;-2.30;99.90;;;;;;966512;145;27218;-84
2024/01/20 00:39:21;;;;;;;16.70;11.83;;;-2.30;99.90;;;;;;966571;147;27316;-83
2024/01/20 00:41:47;;;;;;;15.93;11.77;;;-2.30;99.90;;;;;;966065;148;27314;-85
2024/01/20 00:44:14;;;;;;;18.00;11.23;;;-2.30;99.90;;;;;;965847;145;27324;-85
2024/01/20 00:46:41;;;;;;;19.43;12.40;;;-2.30;99.90;;;;;;966261;147;27218;-84
2024/01/20 00:49:07;;;;;;;17.23;12.23;;;-2.30;99.90;;;;;;966520;145;27337;-83
2024/01/20 00:51:34;;;;;;;20.10;12.53;;;-2.30;99.90;;;;;;966506;148;27313;-84
2024/01/20 00:54:00;;;;;;;17.17;11.30;;;-2.30;99.90;;;;;;966251;147;27338;-85
2024/01/20 00:56:27;;;;;;;18.40;12.57;;;-2.30;99.90;;;;;;966418;145;27272;-84
2024/01/20 00:58:54;;;;;;;21.00;11.77;;;-2.40;99.90;;;;;;966332;146;27433;-83
2024/01/20 01:01:20;;;;;;;18.13;12.63;;;-2.40;99.90;;;;;;966552;147;27328;-83
2024/01/20 01:03:47;;;;;;;15.57;9.90;;;-2.40;99.90;;;;;;966543;147;27327;-83
2024/01/20 01:06:13;;;;;;;17.90;12.07;;;-2.40;99.90;;;;;;966097;148;27289;-83
2024/01/20 01:08:40;;;;;;;17.00;11.93;;;-2.50;99.90;;;;;;966032;146;27395;-82
2024/01/20 01:11:07;;;;;;;18.93;12.20;;;-2.50;99.90;;;;;;966285;147;27228;-83
2024/01/20 01:13:36;;;;;;;16.83;12.27;;;-2.50;99.90;;;;;;966410;145;27405;-83
2024/01/20 01:16:00;;;;;;;17.90;11.43;;;-2.60;99.90;;;;;;966042;147;27365;-83
2024/01/20 01:18:26;;;;;;;15.90;11.37;;;-2.60;99.90;;;;;;966289;148;27262;-83
2024/01/20 01:20:53;;;;;;;18.13;10.87;;;-2.60;99.90;;;;;;965746;147;27270;-83
2024/01/20 01:23:19;;;;;;;21.60;12.40;;;-2.70;99.90;;;;;;966412;148;27400;-83
2024/01/20 01:25:46;;;;;;;18.03;12.47;;;-2.70;99.90;;;;;;965743;145;27313;-83
2024/01/20 01:28:13;;;;;;;18.40;11.70;;;-2.70;99.90;;;;;;965975;145;27297;-82
2024/01/20 01:30:39;;;;;;;24.57;12.53;;;-2.70;99.90;;;;;;966228;145;27285;-83
2024/01/20 01:33:06;;;;;;;18.50;11.97;;;-2.70;99.90;;;;;;966299;146;27324;-82
2024/01/20 01:35:32;;;;;;;22.30;12.97;;;-2.80;99.90;;;;;;966311;147;27495;-82
2024/01/20 01:37:59;;;;;;;19.40;13.17;;;-2.80;99.90;;;;;;966334;148;28324;-83
2024/01/20 01:40:26;;;;;;;22.63;13.73;;;-2.80;99.90;;;;;;966059;147;27258;-82
2024/01/20 01:42:58;;;;;;;24.00;13.00;;;-2.80;99.90;;;;;;966527;148;27281;-82
2024/01/20 01:45:25;;;;;;;19.20;13.20;;;-2.90;99.90;;;;;;966339;148;27430;-83
2024/01/20 01:47:51;;;;;;;22.87;13.90;;;-2.90;99.90;;;;;;966282;148;27257;-82
2024/01/20 01:50:18;;;;;;;19.83;13.10;;;-2.90;99.90;;;;;;966065;148;27262;-83
2024/01/20 01:52:45;;;;;;;23.77;13.93;;;-2.90;99.90;;;;;;965869;147;27289;-82
2024/01/20 01:55:11;;;;;;;21.37;14.00;;;-2.90;99.90;;;;;;965841;147;27310;-82
2024/01/20 01:57:38;;;;;;;19.77;13.53;;;-2.90;99.90;;;;;;966110;147;27405;-82
2024/01/20 02:00:04;;;;;;;21.20;13.93;;;-2.90;99.90;;;;;;966124;148;27336;-83
2024/01/20 02:02:31;;;;;;;22.73;14.33;;;-3.00;99.90;;;;;;966526;145;27342;-82
2024/01/20 02:04:57;;;;;;;19.83;13.70;;;-3.00;99.90;;;;;;965904;145;27405;-82
2024/01/20 02:07:24;;;;;;;20.50;14.03;;;-3.00;99.90;;;;;;966535;147;27429;-82
2024/01/20 02:09:51;;;;;;;20.77;13.83;;;-3.00;99.90;;;;;;965915;146;28299;-82
2024/01/20 02:12:17;;;;;;;20.90;13.83;;;-3.00;99.90;;;;;;965886;147;27365;-82
2024/01/20 02:14:44;;;;;;;19.87;13.80;;;-3.00;99.90;;;;;;966112;147;27657;-82
2024/01/20 02:17:10;;;;;;;22.27;14.13;;;-3.00;99.90;;;;;;966384;145;27328;-82
2024/01/20 02:19:37;;;;;;;19.43;12.77;;;-3.00;99.90;;;;;;965921;145;27309;-81
2024/01/20 02:22:13;;;;;;;17.50;12.13;;;-3.00;99.90;;;;;;965765;145;27280;-82
2024/01/20 02:24:39;;;;;;;20.33;13.17;;;-3.10;99.90;;;;;;966390;145;27242;-82
2024/01/20 02:27:06;;;;;;;19.50;13.47;;;-3.10;99.90;;;;;;966712;146;27397;-82
2024/01/20 02:29:33;;;;;;;23.40;13.47;;;-3.20;99.90;;;;;;966616;147;27324;-82
2024/01/20 02:31:59;;;;;;;21.43;13.30;;;-3.20;99.90;;;;;;966505;147;27275;-82
2024/01/20 02:34:27;;;;;;;25.60;14.37;;;-3.20;99.90;;;;;;966564;146;27622;-82
2024/01/20 02:36:52;;;;;;;22.47;12.93;;;-3.30;99.90;;;;;;966270;145;27261;-82
2024/01/20 02:39:19;;;;;;;22.13;13.40;;;-3.30;99.90;;;;;;966373;147;27393;-82
2024/01/20 02:41:46;;;;;;;21.10;14.13;;;-3.40;99.90;;;;;;965840;148;27242;-82
2024/01/20 02:44:12;;;;;;;24.20;12.70;;;-3.40;99.90;;;;;;965870;147;27329;-82
2024/01/20 02:46:39;;;;;;;19.47;12.63;;;-3.40;99.90;;;;;;966308;147;27405;-82
2024/01/20 02:49:05;;;;;;;24.53;14.23;;;-3.50;99.90;;;;;;966674;145;27264;-82
2024/01/20 02:51:32;;;;;;;23.30;15.13;;;-3.50;99.90;;;;;;966604;146;27333;-83
2024/01/20 02:53:59;;;;;;;23.90;14.57;;;-3.50;99.90;;;;;;965724;145;27417;-82
2024/01/20 02:56:25;;;;;;;22.70;14.57;;;-3.60;99.90;;;;;;966004;148;27346;-82
2024/01/20 02:58:52;;;;;;;22.23;14.27;;;-3.60;99.90;;;;;;966533;147;27246;-82
2024/01/20 03:01:18;;;;;;;24.67;14.77;;;-3.60;99.90;;;;;;966456;147;27458;-82
2024/01/20 03:03:45;;;;;;;24.63;15.43;;;-3.70;99.90;;;;;;966474;147;28474;-82
2024/01/20 03:06:11;;;;;;;22.87;12.83;;;-3.70;99.90;;;;;;966232;148;27230;-82
2024/01/20 03:08:38;;;;;;;22.90;13.27;;;-3.70;99.90;;;;;;966665;146;27270;-82
2024/01/20 03:11:05;;;;;;;22.03;14.00;;;-3.70;99.90;;;;;;966552;145;27277;-82
2024/01/20 03:13:31;;;;;;;20.10;12.63;;;-3.80;99.90;;;;;;966410;145;27301;-82
2024/01/20 03:15:58;;;;;;;21.07;13.83;;;-3.80;99.90;;;;;;966013;145;27268;-82
2024/01/20 03:18:24;;;;;;;21.03;14.40;;;-3.80;99.90;;;;;;966585;145;27719;-82
2024/01/20 03:20:51;;;;;;;24.13;14.47;;;-3.90;99.90;;;;;;965937;148;27266;-82
2024/01/20 03:23:18;;;;;;;22.93;13.27;;;-3.90;99.90;;;;;;966488;145;27404;-82
2024/01/20 03:25:44;;;;;;;23.40;13.20;;;-3.90;99.90;;;;;;966570;145;27308;-82
2024/01/20 03:28:11;;;;;;;22.80;13.33;;;-3.90;99.90;;;;;;966358;145;27297;-82
2024/01/20 03:30:37;;;;;;;23.83;14.03;;;-3.90;99.90;;;;;;966386;145;27349;-82
2024/01/20 03:33:04;;;;;;;20.87;13.10;;;-4.00;99.90;;;;;;966483;145;27317;-82
2024/01/20 03:35:31;;;;;;;24.27;14.57;;;-4.00;99.90;;;;;;963219;146;27333;-82
2024/01/20 03:37:57;;;;;;;24.50;14.27;;;-4.00;99.90;;;;;;962890;145;27253;-82
2024/01/20 03:40:24;;;;;;;23.40;14.23;;;-4.00;99.90;;;;;;963188;147;27270;-82
2024/01/20 03:42:50;;;;;;;21.97;13.47;;;-4.00;99.90;;;;;;962332;146;28149;-82
2024/01/20 03:45:17;;;;;;;22.73;14.10;;;-4.10;99.90;;;;;;963293;147;27400;-82
2024/01/20 03:47:43;;;;;;;19.47;13.47;;;-4.10;99.90;;;;;;963273;146;27258;-82
2024/01/20 03:50:10;;;;;;;20.77;13.20;;;-4.10;99.90;;;;;;963213;149;27254;-82
2024/01/20 03:52:37;;;;;;;20.97;14.30;;;-4.20;99.90;;;;;;962679;145;27361;-82
2024/01/20 03:55:03;;;;;;;17.83;13.23;;;-4.20;99.90;;;;;;962894;145;27329;-82
2024/01/20 03:57:30;;;;;;;22.37;13.30;;;-4.10;99.90;;;;;;962928;145;27406;-82
2024/01/20 03:59:56;;;;;;;23.90;14.33;;;-4.10;99.90;;;;;;962863;145;27331;-82
2024/01/20 04:02:23;;;;;;;21.73;12.87;;;-4.10;99.90;;;;;;962795;145;27339;-82
2024/01/20 04:04:50;;;;;;;22.80;13.30;;;-4.10;99.90;;;;;;963067;145;27879;-81
2024/01/20 04:07:16;;;;;;;17.63;12.50;;;-4.00;99.90;;;;;;962651;147;27324;-82
2024/01/20 04:09:43;;;;;;;16.17;11.87;;;-3.90;99.90;;;;;;963014;146;27703;-82
2024/01/20 04:12:09;;;;;;;20.30;12.90;;;-3.80;99.90;;;;;;962781;147;27349;-82
2024/01/20 04:14:36;;;;;;;20.13;12.43;;;-3.70;99.90;;;;;;962676;147;27268;-82
2024/01/20 04:17:03;;;;;;;19.53;12.50;;;-3.60;99.90;;;;;;963200;147;27344;-82
2024/01/20 04:19:29;;;;;;;19.90;12.07;;;-3.50;99.90;;;;;;962762;149;27353;-82
2024/01/20 04:21:56;;;;;;;21.47;12.63;;;-3.40;99.90;;;;;;963156;148;27357;-82
2024/01/20 04:24:22;;;;;;;18.47;12.50;;;-3.40;99.90;;;;;;963300;146;27295;-82
2024/01/20 04:26:49;;;;;;;21.27;13.40;;;-3.30;99.90;;;;;;963924;146;27339;-82
2024/01/20 04:29:16;;;;;;;21.67;13.83;;;-3.10;99.90;;;;;;963213;146;27313;-81
2024/01/20 04:31:42;;;;;;;21.03;13.33;;;-3.00;99.90;;;;;;962837;145;27258;-81
2024/01/20 04:34:09;;;;;;;17.17;12.67;;;-2.90;99.90;;;;;;962907;146;27257;-81
2024/01/20 04:36:35;;;;;;;17.83;12.40;;;-2.80;99.90;;;;;;958134;148;27282;-81
2024/01/20 04:39:02;;;;;;;17.57;11.90;;;-2.70;99.90;;;;;;957230;148;27422;-82
2024/01/20 04:41:28;;;;;;;18.20;12.60;;;-2.60;99.90;;;;;;957856;149;27267;-81
2024/01/20 04:43:55;;;;;;;15.87;12.57;;;-2.50;99.90;;;;;;957285;149;27284;-81
2024/01/20 04:46:22;;;;;;;20.00;12.80;;;-2.40;99.90;;;;;;958146;146;27267;-81
2024/01/20 04:48:48;;;;;;;20.70;13.20;;;-2.20;99.90;;;;;;958166;146;27322;-81
2024/01/20 04:51:15;;;;;;;18.17;13.10;;;-2.10;99.90;;;;;;957750;146;28485;-81
2024/01/20 04:53:41;;;;;;;21.67;14.27;;;-2.10;99.90;;;;;;957873;146;27355;-82
2024/01/20 04:56:08;;;;;;;19.63;13.60;;;-1.90;99.90;;;;;;958120;148;27339;-81
2024/01/20 04:58:35;;;;;;;25.47;14.87;;;-1.80;99.90;;;;;;958288;147;27263;-81
2024/01/20 05:01:01;;;;;;;20.63;13.37;;;-1.80;99.90;;;;;;957467;147;27671;-81
2024/01/20 05:03:28;;;;;;;21.17;14.43;;;-1.70;99.90;;;;;;957888;148;27343;-82
2024/01/20 05:05:54;;;;;;;20.30;13.67;;;-1.60;99.90;;;;;;957567;149;27254;-81
2024/01/20 05:08:21;;;;;;;24.13;14.83;;;-1.50;99.90;;;;;;958267;147;27263;-81
2024/01/20 05:10:48;;;;;;;21.97;15.17;;;-1.40;99.90;;;;;;957938;149;27423;-81
2024/01/20 05:13:14;;;;;;;21.13;14.07;;;-1.40;99.90;;;;;;957765;149;27260;-81
2024/01/20 05:15:41;;;;;;;22.30;13.67;;;-1.30;99.90;;;;;;957706;146;27287;-81
2024/01/20 05:18:07;;;;;;;20.00;14.17;;;-1.20;99.90;;;;;;958300;147;27231;-81
2024/01/20 05:20:34;;;;;;;18.57;13.47;;;-1.10;99.90;;;;;;957706;146;27334;-82
2024/01/20 05:23:01;;;;;;;16.03;13.37;;;-1.10;99.90;;;;;;957595;148;27302;-82
2024/01/20 05:25:27;;;;;;;19.53;13.50;;;-1.00;99.90;;;;;;957348;147;27254;-81
2024/01/20 05:27:55;;;;;;;16.83;12.47;;;-1.00;99.90;;;;;;958139;147;27279;-81
2024/01/20 05:30:22;;;;;;;17.37;12.07;;;-1.00;99.90;;;;;;958047;147;27301;-81
2024/01/20 05:32:48;;;;;;;17.50;11.97;;;-0.90;99.90;;;;;;957530;146;27305;-81
2024/01/20 05:35:15;;;;;;;20.13;13.63;;;-0.90;99.90;;;;;;958408;146;27333;-82
2024/01/20 05:37:41;;;;;;;15.90;12.47;;;-0.90;99.90;;;;;;960312;145;27406;-82
2024/01/20 05:40:08;;;;;;;17.10;11.37;;;-0.90;99.90;;;;;;960757;148;27753;-83
2024/01/20 05:42:35;;;;;;;17.13;11.57;;;-0.90;99.90;;;;;;960950;147;27344;-82
2024/01/20 05:45:01;;;;;;;15.43;11.07;;;-1.00;99.90;;;;;;960576;146;27327;-82
2024/01/20 05:47:28;;;;;;;16.90;11.10;;;-1.00;99.90;;;;;;960219;148;27741;-82
2024/01/20 05:49:54;;;;;;;17.87;11.33;;;-1.10;99.80;;;;;;960217;145;27440;-82
2024/01/20 05:52:21;;;;;;;17.10;10.70;;;-1.10;99.70;;;;;;960439;148;27263;-82
2024/01/20 05:54:48;;;;;;;16.70;11.27;;;-1.20;99.50;;;;;;960313;146;27227;-82
2024/01/20 05:57:14;;;;;;;15.43;11.73;;;-1.20;99.40;;;;;;960435;145;27337;-82
2024/01/20 05:59:41;;;;;;;15.97;11.63;;;-1.20;99.40;;;;;;960265;147;27425;-82
2024/01/20 06:02:07;;;;;;;16.50;11.20;;;-1.30;99.50;;;;;;960193;148;27276;-82
2024/01/20 06:04:34;;;;;;;18.93;11.60;;;-1.30;99.60;;;;;;960736;147;27350;-82
2024/01/20 06:07:00;;;;;;;14.87;10.87;;;-1.40;99.70;;;;;;959568;146;27363;-82
2024/01/20 06:09:27;;;;;;;15.70;10.80;;;-1.40;99.50;;;;;;960520;146;27464;-83
2024/01/20 06:11:54;;;;;;;15.07;11.17;;;-1.50;99.20;;;;;;959525;146;27231;-83
2024/01/20 06:14:20;;;;;;;14.20;10.20;;;-1.50;98.90;;;;;;959509;148;27288;-82
2024/01/20 06:16:47;;;;;;;15.47;11.10;;;-1.60;98.60;;;;;;960631;146;27387;-82
2024/01/20 06:19:13;;;;;;;18.80;11.67;;;-1.60;98.40;;;;;;959903;147;27430;-82
2024/01/20 06:21:40;;;;;;;17.17;10.77;;;-1.70;98.20;;;;;;961254;147;27670;-82
2024/01/20 06:24:07;;;;;;;19.77;11.83;;;-1.80;98.00;;;;;;960487;148;27271;-82
2024/01/20 06:26:33;;;;;;;24.23;15.43;;;-1.90;97.90;;;;;;960320;145;27298;-82
2024/01/20 06:29:00;;;;;;;23.50;14.30;;;-2.00;97.80;;;;;;959982;146;27371;-81
2024/01/20 06:31:26;;;;;;;24.60;14.13;;;-2.10;97.80;;;;;;960625;147;27408;-82
2024/01/20 06:33:53;;;;;;;24.63;15.60;;;-2.20;98.00;;;;;;960417;145;27274;-82
2024/01/20 06:36:21;;;;;;;27.33;15.50;;;-2.30;98.40;;;;;;961518;145;27402;-82
2024/01/20 06:38:47;;;;;;;31.17;16.37;;;-2.30;98.80;;;;;;962516;147;27265;-82
2024/01/20 06:41:13;;;;;;;26.13;17.43;;;-2.40;99.30;;;;;;962923;147;27317;-82
2024/01/20 06:43:39;;;;;;;27.60;15.70;;;-2.40;99.70;;;;;;963489;147;28819;-82
2024/01/20 06:46:07;;;;;;;35.60;15.87;;;-2.40;99.90;;;;;;963087;146;27226;-82
2024/01/20 06:48:33;;;;;;;39.27;17.57;;;-2.40;99.90;;;;;;963065;147;27798;-82
2024/01/20 06:51:00;;;;;;;26.80;15.73;;;-2.40;99.90;;;;;;962564;145;27301;-82
2024/01/20 06:53:26;;;;;;;61.67;18.30;;;-2.40;99.90;;;;;;963308;147;27313;-81
2024/01/20 06:55:52;;;;;;;25.23;14.47;;;-2.40;99.90;;;;;;962757;146;27253;-81
2024/01/20 06:58:19;;;;;;;28.10;17.23;;;-2.40;99.90;;;;;;962867;146;27330;-82
2024/01/20 07:00:45;;;;;;;27.37;16.03;;;-2.40;99.90;;;;;;963213;145;27254;-81
2024/01/20 07:03:12;;;;;;;33.70;17.30;;;-2.40;99.90;;;;;;962982;145;27787;-81
2024/01/20 07:05:39;;;;;;;27.07;15.80;;;-2.40;99.90;;;;;;963002;149;28282;-80
2024/01/20 07:08:05;;;;;;;25.43;13.70;;;-2.40;99.90;;;;;;962885;145;27354;-80
2024/01/20 07:10:32;;;;;;;31.20;15.73;;;-2.30;99.90;;;;;;963139;147;27362;-81
2024/01/20 07:12:58;;;;;;;27.97;14.77;;;-2.30;99.90;;;;;;963224;145;27317;-81
2024/01/20 07:15:26;;;;;;;34.00;14.07;;;-2.30;99.90;;;;;;962969;149;27449;-81
2024/01/20 07:17:52;;;;;;;29.60;15.10;;;-2.30;99.90;;;;;;962402;146;27277;-81
2024/01/20 07:20:18;;;;;;;34.87;18.40;;;-2.30;99.90;;;;;;962593;147;27254;-81
2024/01/20 07:22:45;;;;;;;27.80;14.70;;;-2.20;99.90;;;;;;963251;147;27364;-81
2024/01/20 07:25:11;;;;;;;27.00;15.77;;;-2.20;99.90;;;;;;962988;147;27340;-80
2024/01/20 07:27:38;;;;;;;27.27;16.10;;;-2.20;99.90;;;;;;963144;145;27223;-80
2024/01/20 07:30:05;;;;;;;26.77;14.03;;;-2.20;99.90;;;;;;962888;148;27344;-79
2024/01/20 07:32:31;;;;;;;29.83;15.67;;;-2.20;99.90;;;;;;963261;149;27277;-82
2024/01/20 07:34:58;;;;;;;26.53;15.63;;;-2.10;99.90;;;;;;962352;146;27414;-82
2024/01/20 07:37:24;;;;;;;30.23;15.40;;;-2.10;99.90;;;;;;965193;146;27337;-82
2024/01/20 07:39:51;;;;;;;36.07;17.00;;;-2.10;99.90;;;;;;966358;145;27390;-82
2024/01/20 07:42:18;;;;;;;50.70;17.63;;;-2.00;99.90;;;;;;964895;147;27412;-81
2024/01/20 07:44:44;;;;;;;28.97;15.93;;;-2.00;99.90;;;;;;966320;147;27417;-83
2024/01/20 07:47:13;;;;;;;27.43;16.17;;;-1.90;99.90;;;;;;966602;147;27435;-82
2024/01/20 07:49:37;;;;;;;26.07;15.40;;;-1.90;99.90;;;;;;966060;147;27350;-80
2024/01/20 07:52:04;;;;;;;37.10;16.17;;;-1.80;99.90;;;;;;965847;148;27350;-81
2024/01/20 07:54:30;;;;;;;35.90;15.33;;;-1.80;99.90;;;;;;965526;148;27257;-81
2024/01/20 07:56:57;;;;;;;29.57;15.23;;;-1.70;99.90;;;;;;965937;145;27680;-80
2024/01/20 07:59:24;;;;;;;27.20;14.33;;;-1.70;99.90;;;;;;966106;145;27724;-80
2024/01/20 08:01:50;;;;;;;30.23;15.43;;;-1.60;99.90;;;;;;966035;147;27311;-81
2024/01/20 08:04:17;;;;;;;27.87;15.37;;;-1.60;99.90;;;;;;966433;147;27258;-81
2024/01/20 08:06:44;;;;;;;20.03;14.30;;;-1.60;99.90;;;;;;966454;145;27324;-81
2024/01/20 08:09:10;;;;;;;24.13;15.10;;;-1.50;99.90;;;;;;966058;146;28482;-80
2024/01/20 08:11:37;;;;;;;27.77;15.87;;;-1.50;99.90;;;;;;966009;145;27356;-81
2024/01/20 08:14:03;;;;;;;45.83;17.43;;;-1.40;99.90;;;;;;965168;145;27320;-81
2024/01/20 08:16:30;;;;;;;27.23;16.00;;;-1.40;99.90;;;;;;965851;147;27369;-83
2024/01/20 08:18:56;;;;;;;21.60;13.50;;;-1.30;99.90;;;;;;965580;147;27321;-80
2024/01/20 08:21:23;;;;;;;26.13;15.40;;;-1.30;99.90;;;;;;965837;148;27370;-81
2024/01/20 08:23:50;;;;;;;24.27;15.23;;;-1.20;99.90;;;;;;966001;147;27258;-80
2024/01/20 08:26:16;;;;;;;24.73;15.57;;;-1.20;99.90;;;;;;966173;145;27270;-81
2024/01/20 08:28:43;;;;;;;27.40;15.87;;;-1.10;99.90;;;;;;966124;145;27380;-81
2024/01/20 08:31:09;;;;;;;23.37;14.37;;;-1.10;99.90;;;;;;965915;145;27335;-80
2024/01/20 08:33:36;;;;;;;25.30;14.50;;;-1.00;99.90;;;;;;965879;148;27346;-80
2024/01/20 08:36:03;;;;;;;26.73;13.57;;;-1.00;99.90;;;;;;966229;148;27297;-80
2024/01/20 08:41:09;;;;;;;22.37;14.80;;;-0.90;99.90;;;;;;985762;142;40293;-81
2024/01/20 08:43:42;;;;;;;20.23;13.27;;;-0.80;99.90;;;;;;967823;144;27396;-83
2024/01/20 08:46:08;;;;;;;20.17;12.50;;;-0.70;99.90;;;;;;947305;148;27319;-81
2024/01/20 08:48:35;;;;;;;18.27;11.83;;;-0.60;99.90;;;;;;940041;151;27338;-80
2024/01/20 08:51:01;;;;;;;18.83;12.60;;;-0.60;99.90;;;;;;937859;148;27293;-82
2024/01/20 08:53:28;;;;;;;20.70;13.20;;;-0.50;99.90;;;;;;941503;149;27290;-82
2024/01/20 08:55:55;;;;;;;21.73;13.03;;;-0.40;99.90;;;;;;944144;149;27492;-80
2024/01/20 08:58:21;;;;;;;18.93;12.27;;;-0.30;99.90;;;;;;943025;149;27344;-80
2024/01/20 09:00:48;;;;;;;22.70;13.73;;;-0.20;99.90;;;;;;938203;149;27451;-81
2024/01/20 09:03:16;;;;;;;22.10;12.87;;;0.00;99.90;;;;;;940880;149;27398;-80
2024/01/20 09:05:41;;;;;;;19.30;12.77;;;0.10;99.90;;;;;;938039;149;27370;-80
2024/01/20 09:08:09;;;;;;;20.37;13.00;;;0.20;99.90;;;;;;941582;149;27468;-79
2024/01/20 09:10:36;;;;;;;18.27;12.13;;;0.30;99.90;;;;;;931610;152;27359;-86
2024/01/20 09:13:01;;;;;;;18.50;10.53;;;0.40;99.90;;;;;;932773;152;27379;-86
2024/01/20 09:15:27;;;;;;;20.33;12.67;;;0.40;99.90;;;;;;930472;151;27462;-83
2024/01/20 09:17:54;;;;;;;22.40;10.93;;;0.60;99.90;;;;;;931624;152;27390;-86
2024/01/20 09:20:20;;;;;;;18.70;11.57;;;0.60;99.90;;;;;;932448;152;27372;-84
2024/01/20 09:22:47;;;;;;;19.73;11.77;;;0.70;99.90;;;;;;931998;151;27335;-86
2024/01/20 09:25:14;;;;;;;17.70;11.33;;;0.80;99.90;;;;;;929706;152;27301;-85
2024/01/20 09:27:40;;;;;;;18.57;11.60;;;0.80;99.90;;;;;;931478;152;27365;-86
2024/01/20 09:30:07;;;;;;;22.60;11.97;;;0.90;99.90;;;;;;932161;152;27373;-87
2024/01/20 09:32:33;;;;;;;19.27;11.97;;;1.00;99.90;;;;;;929925;152;27324;-80
2024/01/20 09:35:00;;;;;;;15.60;10.77;;;1.10;99.90;;;;;;931269;151;27537;-80
2024/01/20 09:37:27;;;;;;;26.17;15.90;;;1.20;99.90;;;;;;933163;151;27419;-80
2024/01/20 09:39:53;;;;;;;20.23;12.77;;;1.30;99.90;;;;;;932025;152;27449;-80
2024/01/20 09:42:20;;;;;;;18.97;12.00;;;1.40;99.90;;;;;;936088;151;27424;-80
2024/01/20 09:44:46;;;;;;;18.63;11.80;;;1.50;99.90;;;;;;932798;152;27302;-80
2024/01/20 09:47:13;;;;;;;19.73;11.60;;;1.60;99.90;;;;;;932510;152;27332;-84
2024/01/20 09:49:40;;;;;;;22.27;13.03;;;1.70;99.90;;;;;;932699;152;27382;-81
2024/01/20 09:52:12;;;;;;;20.90;12.93;;;1.80;99.90;;;;;;930490;152;27376;-80
2024/01/20 09:54:39;;;;;;;21.13;12.57;;;1.90;99.90;;;;;;932959;152;27365;-79
2024/01/20 09:57:11;;;;;;;19.67;12.80;;;1.90;99.90;;;;;;933773;152;27408;-79
2024/01/20 09:59:33;;;;;;;19.80;12.17;;;2.00;99.90;;;;;;931194;152;27440;-83
2024/01/20 10:01:59;;;;;;;20.73;12.53;;;2.10;99.80;;;;;;932375;152;27867;-79
2024/01/20 10:04:26;;;;;;;19.27;12.13;;;2.20;99.80;;;;;;930083;152;27480;-81
2024/01/20 10:06:54;;;;;;;19.97;12.20;;;2.30;99.60;;;;;;930586;152;27342;-80
2024/01/20 10:09:19;;;;;;;20.43;12.57;;;2.40;99.00;;;;;;932544;149;27433;-82
2024/01/20 10:11:46;;;;;;;19.33;12.80;;;2.50;98.30;;;;;;931248;152;27377;-80
2024/01/20 10:14:12;;;;;;;19.03;12.77;;;2.50;97.30;;;;;;959536;148;27355;-80
2024/01/20 10:16:41;;;;;;;19.97;12.50;;;2.50;96.60;;;;;;908033;153;27364;-79
2024/01/20 10:19:08;;;;;;;19.10;13.03;;;2.50;96.10;;;;;;926801;152;27326;-82
2024/01/20 10:21:40;;;;;;;19.07;12.10;;;2.50;95.70;;;;;;929173;152;27463;-85
2024/01/20 10:24:07;;;;;;;18.87;12.30;;;2.50;95.60;;;;;;931661;152;27447;-87
2024/01/20 10:26:33;;;;;;;18.87;12.90;;;2.50;95.60;;;;;;930564;152;27492;-87
2024/01/20 10:29:00;;;;;;;14.93;11.20;;;2.50;95.60;;;;;;931044;152;27348;-82
2024/01/20 10:31:27;;;;;;;17.93;12.00;;;2.40;95.60;;;;;;929185;152;27755;-88
2024/01/20 10:33:53;;;;;;;15.73;12.10;;;2.40;95.50;;;;;;933437;152;27480;-88
2024/01/20 10:36:20;;;;;;;17.30;11.73;;;2.40;95.60;;;;;;928044;152;27359;-88
2024/01/20 10:38:46;;;;;;;21.13;11.33;;;2.40;96.00;;;;;;928505;152;27323;-84
2024/01/20 10:41:13;;;;;;;15.70;11.40;;;2.40;96.00;;;;;;926161;152;27410;-83
2024/01/20 10:43:40;;;;;;;16.40;12.10;;;2.40;95.60;;;;;;922557;153;27299;-89
2024/01/20 10:46:12;;;;;;;17.60;12.67;;;2.40;95.30;;;;;;937313;151;27378;-86
2024/01/20 10:48:39;;;;;;;18.30;11.93;;;2.40;95.30;;;;;;935594;150;27778;-85
2024/01/20 10:51:05;;;;;;;19.00;12.50;;;2.40;95.50;;;;;;922195;152;27828;-90
2024/01/20 10:53:32;;;;;;;18.33;12.07;;;2.40;95.60;;;;;;903475;156;27504;-89
2024/01/20 10:55:58;;;;;;;17.47;12.10;;;2.40;95.60;;;;;;922422;154;27472;-86
2024/01/20 10:58:28;;;;;;;18.40;12.33;;;2.40;95.50;;;;;;924429;153;27352;-89
2024/01/20 11:00:54;;;;;;;18.70;12.33;;;2.40;95.30;;;;;;958296;147;27326;-83
2024/01/20 11:03:21;;;;;;;16.80;11.63;;;2.40;95.20;;;;;;957411;148;27335;-88
2024/01/20 11:05:48;;;;;;;16.80;11.40;;;2.40;95.20;;;;;;958978;148;27374;-89
2024/01/20 11:08:14;;;;;;;16.20;11.47;;;2.40;95.20;;;;;;957955;146;27751;-88
2024/01/20 11:10:41;;;;;;;15.27;10.57;;;2.40;95.20;;;;;;958670;147;27371;-86
2024/01/20 11:13:07;;;;;;;16.53;11.73;;;2.40;95.10;;;;;;955758;147;27347;-90
2024/01/20 11:15:34;;;;;;;16.73;11.03;;;2.40;95.00;;;;;;957643;148;27288;-89
2024/01/20 11:18:00;;;;;;;17.67;11.77;;;2.40;95.00;;;;;;937909;151;27315;-88
2024/01/20 11:20:27;;;;;;;17.83;13.20;;;2.40;95.00;;;;;;912019;154;27452;-86
2024/01/20 11:22:55;;;;;;;17.03;11.93;;;2.30;95.30;;;;;;953783;148;27339;-89
2024/01/20 11:25:22;;;;;;;18.27;12.37;;;2.30;95.80;;;;;;955831;148;28644;-87
2024/01/20 11:27:47;;;;;;;19.33;12.27;;;2.40;96.20;;;;;;939056;151;27398;-89
2024/01/20 11:30:13;;;;;;;17.83;11.83;;;2.40;96.70;;;;;;937905;151;27313;-89
2024/01/20 11:32:40;;;;;;;18.13;13.93;;;2.50;97.40;;;;;;938330;150;27801;-83
2024/01/20 11:35:07;;;;;;;17.63;12.33;;;2.60;97.80;;;;;;922672;153;27822;-79
2024/01/20 11:37:33;;;;;;;16.27;11.37;;;2.70;98.10;;;;;;923154;153;27865;-79
2024/01/20 11:40:03;;;;;;;17.47;11.17;;;2.80;97.90;;;;;;928010;153;27398;-80
2024/01/20 11:42:29;;;;;;;16.77;11.87;;;2.90;97.20;;;;;;923641;153;27418;-81
2024/01/20 11:44:56;;;;;;;14.37;11.03;;;2.90;96.80;;;;;;923248;153;28824;-79
2024/01/20 11:47:22;;;;;;;16.53;11.73;;;2.90;96.40;;;;;;902494;156;27319;-80
2024/01/20 11:49:49;;;;;;;15.23;11.60;;;3.00;96.40;;;;;;929928;152;27417;-80
2024/01/20 11:52:15;;;;;;;16.67;11.33;;;3.10;96.50;;;;;;960108;146;27285;-82
2024/01/20 11:54:42;;;;;;;16.50;12.30;;;3.10;97.00;;;;;;957878;148;27334;-81
2024/01/20 11:57:09;;;;;;;16.93;11.97;;;3.20;96.60;;;;;;960098;147;27387;-80
2024/01/20 11:59:35;;;;;;;15.37;11.77;;;3.30;96.00;;;;;;959402;147;27267;-80
2024/01/20 12:02:02;;;;;;;16.43;11.17;;;3.30;95.30;;;;;;956419;148;27408;-81
2024/01/20 12:04:28;;;;;;;15.17;11.63;;;3.30;94.90;;;;;;958886;148;27426;-80
2024/01/20 12:06:55;;;;;;;17.03;12.23;;;3.20;94.40;;;;;;961566;147;27313;-81
2024/01/20 12:09:21;;;;;;;21.43;12.70;;;3.20;94.10;;;;;;960255;148;27450;-81
2024/01/20 12:11:48;;;;;;;17.03;11.60;;;3.20;93.80;;;;;;957693;148;27283;-81
2024/01/20 12:14:15;;;;;;;17.50;12.03;;;3.20;93.70;;;;;;960526;148;27326;-81
2024/01/20 12:16:41;;;;;;;17.07;11.63;;;3.10;93.70;;;;;;959080;148;27431;-80
2024/01/20 12:19:08;;;;;;;18.03;11.90;;;3.00;93.80;;;;;;956920;148;27424;-80
2024/01/20 12:21:34;;;;;;;17.00;11.63;;;3.00;93.70;;;;;;960096;148;27317;-80
2024/01/20 12:24:01;;;;;;;17.90;12.33;;;2.90;93.60;;;;;;959756;147;27359;-83
2024/01/20 12:26:28;;;;;;;16.60;11.20;;;2.90;93.90;;;;;;958492;148;27440;-81
2024/01/20 12:28:54;;;;;;;15.17;11.87;;;2.80;93.50;;;;;;959078;148;27306;-79